Time;durP1;ratioP1;P1;durP2;ratioP2;P2;SDS_P1;SDS_P2;PMS_P1;PMS_P2;Temp;Humidity;BMP_temperature;BMP_pressure;BME280_temperature;BME280_humidity;BME280_pressure;Samples;Min_cycle;Max_cycle;Signal;HPM_P1;HPM_P2
2021/04/05 00:01:25;;;;;;;0.50;0.50;;;;;;;6.46;77.53;100284.19;5076271;28;20438;-64
2021/04/05 00:03:52;;;;;;;0.80;0.80;;;;;;;6.49;77.80;100297.09;5076016;28;20481;-65
2021/04/05 00:06:18;;;;;;;0.93;0.73;;;;;;;6.47;77.21;100278.56;5075985;28;20457;-65
2021/04/05 00:08:44;;;;;;;1.43;1.03;;;;;;;6.49;76.85;100272.88;5075381;28;20425;-66
2021/04/05 00:11:10;;;;;;;0.70;0.50;;;;;;;6.53;76.95;100260.47;5075893;28;20441;-65
2021/04/05 00:13:43;;;;;;;0.40;0.40;;;;;;;6.44;77.30;100271.03;5075971;28;20445;-66
2021/04/05 00:16:10;;;;;;;0.50;0.30;;;;;;;6.46;77.07;100263.50;5075456;28;20433;-66
2021/04/05 00:18:36;;;;;;;0.40;0.37;;;;;;;6.50;77.39;100252.94;5075521;28;20444;-64
2021/04/05 00:21:07;;;;;;;1.70;0.50;;;;;;;6.47;77.47;100242.78;5076400;28;20443;-65
2021/04/05 00:23:33;;;;;;;0.40;0.30;;;;;;;6.47;77.80;100232.03;5075467;28;20970;-65
2021/04/05 00:25:59;;;;;;;1.20;0.63;;;;;;;6.44;77.44;100227.19;5075706;28;20469;-65
2021/04/05 00:28:25;;;;;;;0.60;0.40;;;;;;;6.38;77.73;100217.56;5075795;28;20445;-65
2021/04/05 00:30:53;;;;;;;0.60;0.50;;;;;;;6.36;78.04;100214.34;5075800;28;20500;-65
2021/04/05 00:33:20;;;;;;;1.57;0.77;;;;;;;6.29;77.95;100210.09;5074843;28;20437;-66
2021/04/05 00:35:46;;;;;;;1.03;0.70;;;;;;;6.15;78.70;100206.44;5075694;28;20448;-65
2021/04/05 00:38:13;;;;;;;1.03;1.03;;;;;;;6.03;79.21;100187.19;5075147;28;20465;-67
2021/04/05 00:40:45;;;;;;;1.53;0.90;;;;;;;5.95;79.25;100177.81;5074921;28;20441;-65
2021/04/05 00:43:13;;;;;;;1.73;0.77;;;;;;;5.92;79.78;100158.75;5075483;28;20520;-65
2021/04/05 00:45:39;;;;;;;0.83;0.67;;;;;;;5.80;79.97;100149.16;5075555;28;20448;-66
2021/04/05 00:48:07;;;;;;;0.50;0.40;;;;;;;5.70;80.31;100148.41;5074555;28;20453;-67
2021/04/05 00:50:41;;;;;;;2.73;2.43;;;;;;;5.61;80.56;100139.34;5075038;28;20969;-66
2021/04/05 00:53:08;;;;;;;0.40;0.40;;;;;;;5.58;80.81;100129.97;5075404;28;20428;-66
2021/04/05 00:55:37;;;;;;;0.40;0.40;;;;;;;5.50;80.94;100117.13;5075304;28;20452;-65
2021/04/05 00:58:04;;;;;;;2.90;1.63;;;;;;;5.45;81.13;100122.53;5074075;28;20462;-66
2021/04/05 01:00:34;;;;;;;0.50;0.50;;;;;;;5.39;81.32;100120.94;5074805;28;20441;-65
2021/04/05 01:03:00;;;;;;;2.50;1.43;;;;;;;5.32;81.73;100126.63;5075105;28;20480;-66
2021/04/05 01:05:26;;;;;;;0.60;0.40;;;;;;;5.28;81.89;100125.56;5075083;28;20442;-64
2021/04/05 01:07:52;;;;;;;1.33;1.13;;;;;;;5.27;82.02;100114.03;5074616;28;20480;-64
2021/04/05 01:10:18;;;;;;;0.60;0.60;;;;;;;5.25;82.08;100110.00;5074117;28;20449;-65
2021/04/05 01:12:45;;;;;;;0.50;0.40;;;;;;;5.23;82.37;100094.19;5074904;28;20472;-65
2021/04/05 01:15:13;;;;;;;0.60;0.60;;;;;;;5.22;82.23;100086.38;5074726;28;20453;-65
2021/04/05 01:17:39;;;;;;;0.40;0.30;;;;;;;5.16;82.53;100069.50;5073956;28;20457;-65
2021/04/05 01:20:08;;;;;;;0.97;0.83;;;;;;;5.15;83.16;100051.00;5073798;28;20441;-66
2021/04/05 01:22:34;;;;;;;0.40;0.30;;;;;;;5.12;83.01;100046.19;5074359;28;21032;-66
2021/04/05 01:25:01;;;;;;;0.40;0.30;;;;;;;5.08;83.32;100027.16;5074690;28;20502;-65
2021/04/05 01:27:26;;;;;;;4.67;1.03;;;;;;;5.06;83.51;100022.06;5074583;28;20456;-64
2021/04/05 01:29:53;;;;;;;0.50;0.40;;;;;;;5.04;83.55;100013.47;5073780;28;20452;-65
2021/04/05 01:32:19;;;;;;;0.97;0.53;;;;;;;5.05;83.91;100014.31;5074658;28;20502;-65
2021/04/05 01:34:44;;;;;;;0.40;0.30;;;;;;;5.09;83.25;100020.72;5074216;28;20441;-64
2021/04/05 01:37:10;;;;;;;0.40;0.30;;;;;;;5.03;83.32;100011.09;5074429;28;20462;-64
2021/04/05 01:39:38;;;;;;;0.40;0.40;;;;;;;5.05;83.23;99995.50;5074545;28;20448;-64
2021/04/05 01:42:04;;;;;;;0.83;0.83;;;;;;;5.06;83.48;99975.63;5074175;28;20491;-64
2021/04/05 01:44:32;;;;;;;1.13;0.83;;;;;;;5.02;83.93;99958.50;5074236;28;20445;-65
2021/04/05 01:46:58;;;;;;;3.40;1.07;;;;;;;4.99;83.61;99957.16;5074190;28;20469;-64
2021/04/05 01:49:24;;;;;;;0.70;0.70;;;;;;;5.02;83.47;99955.81;5073403;28;20445;-63
2021/04/05 01:51:50;;;;;;;1.03;0.93;;;;;;;5.00;83.59;99942.69;5073942;28;20432;-64
2021/04/05 01:54:16;;;;;;;0.80;0.40;;;;;;;4.99;83.80;99942.94;5074081;28;20445;-64
2021/04/05 01:56:44;;;;;;;1.10;0.50;;;;;;;4.98;84.01;99935.97;5073920;28;20465;-64
2021/04/05 01:59:11;;;;;;;0.70;0.70;;;;;;;4.98;83.80;99911.81;5073137;28;20452;-64
2021/04/05 02:01:37;;;;;;;0.40;0.40;;;;;;;5.02;83.93;99908.28;5073860;28;20440;-64
2021/04/05 02:04:05;;;;;;;0.70;0.70;;;;;;;5.01;83.48;99895.97;5073873;28;20526;-66
2021/04/05 02:06:33;;;;;;;0.50;0.40;;;;;;;5.02;83.89;99881.47;5097922;22;20868;-67
2021/04/05 02:08:59;;;;;;;0.40;0.30;;;;;;;5.01;83.58;99868.34;5073539;28;20772;-67
2021/04/05 02:11:28;;;;;;;0.67;0.40;;;;;;;4.99;83.50;99865.91;5073110;28;20429;-70
2021/04/05 02:13:59;;;;;;;0.90;0.90;;;;;;;5.03;83.45;99863.47;5073457;28;21016;-72
2021/04/05 02:16:27;;;;;;;1.13;0.60;;;;;;;5.05;83.17;99855.94;5073609;28;20429;-69
2021/04/05 02:18:55;;;;;;;0.70;0.70;;;;;;;5.02;83.54;99851.94;5072473;28;20978;-67
2021/04/05 02:21:23;;;;;;;0.50;0.50;;;;;;;5.07;83.67;99840.34;5073344;28;20433;-67
2021/04/05 02:23:50;;;;;;;0.40;0.40;;;;;;;5.13;83.68;99828.47;5073508;28;20480;-67
2021/04/05 02:26:17;;;;;;;0.40;0.40;;;;;;;5.14;82.87;99819.38;5073364;28;20441;-66
2021/04/05 02:28:45;;;;;;;0.43;0.40;;;;;;;5.09;82.83;99810.53;5072292;28;21037;-67
2021/04/05 02:31:14;;;;;;;0.40;0.30;;;;;;;5.09;82.70;99808.69;5073423;28;20453;-67
2021/04/05 02:33:42;;;;;;;1.27;1.13;;;;;;;5.06;83.06;99799.28;5073354;28;21209;-68
2021/04/05 02:36:10;;;;;;;0.60;0.40;;;;;;;5.07;82.98;99792.03;5073238;28;20437;-67
2021/04/05 02:38:38;;;;;;;0.40;0.30;;;;;;;5.04;82.81;99792.59;5072798;28;20452;-67
2021/04/05 02:41:04;;;;;;;1.30;1.17;;;;;;;5.01;82.80;99780.56;5076201;28;20445;-68
2021/04/05 02:43:33;;;;;;;1.10;0.57;;;;;;;5.00;83.14;99767.41;5076484;28;20477;-67
2021/04/05 02:45:59;;;;;;;4.63;1.60;;;;;;;5.00;82.46;99759.38;5073260;28;20441;-67
2021/04/05 02:48:27;;;;;;;0.70;0.70;;;;;;;5.00;82.83;99756.69;5072387;28;20971;-68
2021/04/05 02:50:54;;;;;;;0.40;0.30;;;;;;;5.00;82.66;99754.00;5073406;28;20441;-67
2021/04/05 02:53:20;;;;;;;0.40;0.30;;;;;;;4.97;82.52;99738.47;5073253;28;20433;-67
2021/04/05 02:55:46;;;;;;;4.00;0.93;;;;;;;4.96;82.40;99721.59;5073252;28;20479;-68
2021/04/05 02:58:13;;;;;;;5.23;1.17;;;;;;;5.00;82.23;99724.47;5072310;28;20469;-68
2021/04/05 03:00:39;;;;;;;0.80;0.70;;;;;;;5.01;82.62;99723.41;5072903;28;20484;-67
2021/04/05 03:03:06;;;;;;;8.10;1.63;;;;;;;4.98;82.41;99724.78;5072759;28;20994;-67
2021/04/05 03:05:33;;;;;;;1.00;0.77;;;;;;;4.98;82.52;99718.59;5073132;28;20449;-67
2021/04/05 03:07:59;;;;;;;0.40;0.30;;;;;;;5.03;81.97;99715.88;5072337;28;20481;-68
2021/04/05 03:10:29;;;;;;;1.67;0.97;;;;;;;5.08;82.03;99710.44;5072814;28;20441;-67
2021/04/05 03:12:58;;;;;;;4.73;0.80;;;;;;;5.07;81.80;99701.59;5073111;28;20542;-68
2021/04/05 03:15:25;;;;;;;1.00;0.80;;;;;;;5.05;81.90;99698.41;5072800;28;20425;-68
2021/04/05 03:17:56;;;;;;;1.77;1.27;;;;;;;5.09;81.75;99693.28;5072615;28;20464;-69
2021/04/05 03:20:24;;;;;;;0.40;0.40;;;;;;;5.08;81.41;99694.34;5072478;28;20448;-68
2021/04/05 03:22:51;;;;;;;0.40;0.30;;;;;;;5.14;81.33;99685.16;5074802;28;21079;-68
2021/04/05 03:25:19;;;;;;;0.53;0.53;;;;;;;5.18;81.80;99691.53;5076729;28;20437;-68
2021/04/05 03:27:45;;;;;;;4.23;0.60;;;;;;;5.24;80.70;99678.84;5075899;28;20839;-68
2021/04/05 03:30:15;;;;;;;0.40;0.30;;;;;;;5.19;80.60;99677.03;5076330;28;20445;-68
2021/04/05 03:32:44;;;;;;;0.70;0.57;;;;;;;5.18;80.97;99655.81;5076776;28;20437;-68
2021/04/05 03:35:14;;;;;;;0.70;0.63;;;;;;;5.16;80.94;99661.50;5076448;28;20950;-68
2021/04/05 03:37:43;;;;;;;1.80;1.13;;;;;;;5.19;80.62;99652.06;5076599;28;20461;-68
2021/04/05 03:40:11;;;;;;;1.53;1.43;;;;;;;5.20;80.71;99651.78;5075737;28;20494;-69
2021/04/05 03:42:43;;;;;;;1.10;0.70;;;;;;;5.17;80.43;99630.06;5076465;28;20497;-69
2021/04/05 03:45:17;;;;;;;1.80;1.70;;;;;;;5.21;80.68;99623.03;5076413;28;20426;-69
2021/04/05 03:47:50;;;;;;;0.60;0.50;;;;;;;5.20;80.66;99614.19;5076330;28;20502;-67
2021/04/05 03:50:19;;;;;;;0.70;0.53;;;;;;;5.23;80.42;99619.00;5075580;28;20437;-69
2021/04/05 03:52:50;;;;;;;0.70;0.70;;;;;;;5.31;80.35;99620.22;5076143;28;20472;-68
2021/04/05 03:55:21;;;;;;;1.60;0.87;;;;;;;5.36;79.99;99606.75;5076421;28;20432;-68
2021/04/05 03:57:49;;;;;;;1.60;1.50;;;;;;;5.38;79.95;99598.38;5076313;28;20453;-67
2021/04/05 04:00:20;;;;;;;0.60;0.47;;;;;;;5.34;79.97;99597.38;5075310;28;20475;-67
2021/04/05 04:02:50;;;;;;;0.70;0.40;;;;;;;5.30;79.88;99592.56;5075707;28;21295;-68
2021/04/05 04:05:26;;;;;;;0.40;0.30;;;;;;;5.34;79.71;99575.88;5075036;28;20434;-68
2021/04/05 04:08:00;;;;;;;2.20;0.97;;;;;;;5.39;79.77;99590.03;5075039;28;21076;-69
2021/04/05 04:10:30;;;;;;;1.53;0.50;;;;;;;5.39;79.89;99590.03;5075664;28;20429;-68
2021/04/05 04:12:59;;;;;;;0.60;0.60;;;;;;;5.39;79.66;99576.59;5076010;28;20502;-67
2021/04/05 04:15:26;;;;;;;0.40;0.30;;;;;;;5.41;79.48;99563.69;5075270;28;20422;-69
2021/04/05 04:17:57;;;;;;;0.47;0.40;;;;;;;5.41;79.57;99555.66;5075528;28;20465;-68
2021/04/05 04:20:25;;;;;;;0.40;0.30;;;;;;;5.44;79.59;99549.66;5075964;28;20425;-68
2021/04/05 04:22:55;;;;;;;3.57;3.27;;;;;;;5.45;79.01;99561.25;5075061;28;20489;-69
2021/04/05 04:25:21;;;;;;;1.13;0.70;;;;;;;5.43;79.13;99550.75;5094442;28;20472;-68
2021/04/05 04:27:48;;;;;;;0.67;0.53;;;;;;;5.44;79.08;99538.13;5097962;28;20825;-67
2021/04/05 04:30:31;;;;;;;1.57;0.97;;;;;;;5.45;79.25;99529.81;5096002;28;20816;-68
2021/04/05 04:32:58;;;;;;;0.57;0.53;;;;;;;5.50;79.03;99534.28;5095598;28;20498;-68
2021/04/05 04:35:24;;;;;;;0.40;0.30;;;;;;;5.51;78.90;99527.81;5094638;28;20497;-68
2021/04/05 04:37:50;;;;;;;3.20;1.83;;;;;;;5.54;78.48;99533.41;5095756;28;20473;-67
2021/04/05 04:40:21;;;;;;;0.40;0.40;;;;;;;5.60;78.29;99517.22;5095700;28;20440;-68
2021/04/05 04:42:48;;;;;;;1.23;0.93;;;;;;;5.61;78.30;99513.44;5095378;28;20464;-68
2021/04/05 04:45:15;;;;;;;0.60;0.50;;;;;;;5.59;77.83;99515.63;5095338;28;20436;-67
2021/04/05 04:47:42;;;;;;;0.50;0.50;;;;;;;5.63;78.06;99508.56;5095347;28;20477;-66
2021/04/05 04:50:09;;;;;;;1.90;0.73;;;;;;;5.65;77.90;99499.13;5096166;28;20441;-68
2021/04/05 04:52:35;;;;;;;0.70;0.70;;;;;;;5.72;77.82;99494.16;5095476;28;20437;-68
2021/04/05 04:55:01;;;;;;;0.83;0.80;;;;;;;5.70;77.97;99493.66;5094491;28;20487;-68
2021/04/05 04:57:27;;;;;;;3.73;1.80;;;;;;;5.71;77.99;99478.31;5095337;28;20879;-68
2021/04/05 04:59:54;;;;;;;2.40;1.07;;;;;;;5.75;77.99;99484.69;5095299;28;20436;-67
2021/04/05 05:02:20;;;;;;;0.50;0.40;;;;;;;5.79;77.31;99478.44;5095228;28;20437;-67
2021/04/05 05:04:48;;;;;;;0.63;0.63;;;;;;;5.83;77.84;99473.28;5094389;28;20466;-67
2021/04/05 05:07:15;;;;;;;1.73;1.63;;;;;;;5.85;77.31;99460.34;5095818;28;20485;-68
2021/04/05 05:09:42;;;;;;;1.13;1.13;;;;;;;5.87;77.29;99460.03;5095196;28;20456;-68
2021/04/05 05:12:09;;;;;;;1.13;0.50;;;;;;;5.88;77.18;99450.88;5094932;28;20531;-68
2021/04/05 05:14:35;;;;;;;1.13;0.60;;;;;;;5.92;77.04;99443.84;5094257;28;20440;-68
2021/04/05 05:17:03;;;;;;;5.07;2.90;;;;;;;5.96;76.91;99410.72;5094883;28;21056;-68
2021/04/05 05:19:29;;;;;;;7.30;1.63;;;;;;;6.00;77.02;99405.53;5095677;28;20443;-69
2021/04/05 05:22:00;;;;;;;2.90;1.20;;;;;;;6.05;76.96;99395.47;5095182;28;20440;-68
2021/04/05 05:24:30;;;;;;;2.57;0.77;;;;;;;6.05;76.90;99387.41;5094469;28;20464;-71
2021/04/05 05:26:57;;;;;;;1.33;0.93;;;;;;;6.06;76.57;99399.78;5095686;28;20452;-71
2021/04/05 05:29:24;;;;;;;1.43;0.90;;;;;;;6.16;76.74;99393.38;5095162;28;20548;-72
2021/04/05 05:31:50;;;;;;;1.50;1.33;;;;;;;6.18;76.41;99383.09;5094848;28;20965;-68
2021/04/05 05:34:20;;;;;;;14.57;1.90;;;;;;;6.18;76.51;99371.56;5095698;28;20437;-68
2021/04/05 05:36:47;;;;;;;1.63;1.53;;;;;;;6.15;76.66;99364.09;5094397;28;20876;-68
2021/04/05 05:39:15;;;;;;;0.60;0.60;;;;;;;6.21;76.70;99379.03;5094754;28;20994;-67
2021/04/05 05:41:52;;;;;;;3.93;0.70;;;;;;;6.25;76.61;99391.56;5094936;28;20440;-67
2021/04/05 05:44:23;;;;;;;0.93;0.93;;;;;;;6.31;76.25;99390.34;5094252;28;20518;-67
2021/04/05 05:46:53;;;;;;;2.33;1.30;;;;;;;6.39;76.01;99396.13;5093496;28;20473;-68
2021/04/05 05:49:30;;;;;;;0.80;0.80;;;;;;;6.43;76.19;99371.00;5094474;28;20452;-68
2021/04/05 05:52:27;;;;;;;4.47;0.73;;;;;;;6.47;76.06;99373.91;5094554;28;20837;-68
2021/04/05 05:55:06;;;;;;;3.17;0.73;;;;;;;6.55;76.06;99373.16;5093102;28;20957;-68
2021/04/05 05:57:39;;;;;;;3.27;3.07;;;;;;;6.58;75.50;99365.28;5094368;28;20460;-67
2021/04/05 06:00:08;;;;;;;0.60;0.50;;;;;;;6.63;75.48;99358.19;5094069;28;20425;-68
2021/04/05 06:02:48;;;;;;;1.17;1.13;;;;;;;6.69;75.46;99357.78;5094396;28;20495;-68
2021/04/05 06:05:32;;;;;;;1.20;1.10;;;;;;;6.72;75.77;99357.16;5093773;28;20436;-68
2021/04/05 06:08:10;;;;;;;2.03;0.90;;;;;;;6.73;75.21;99353.38;5094020;28;20476;-67
2021/04/05 06:10:44;;;;;;;0.83;0.83;;;;;;;6.77;75.55;99345.47;5097947;28;20433;-67
2021/04/05 06:13:19;;;;;;;4.93;1.60;;;;;;;6.79;75.24;99330.63;5094230;28;20432;-68
2021/04/05 06:15:52;;;;;;;1.40;1.30;;;;;;;6.86;75.67;99324.78;5093393;28;20435;-68
2021/04/05 06:18:26;;;;;;;0.83;0.77;;;;;;;6.92;74.97;99328.16;5094884;28;20467;-68
2021/04/05 06:21:02;;;;;;;0.60;0.60;;;;;;;6.92;75.40;99322.78;5094711;28;20425;-68
2021/04/05 06:23:44;;;;;;;2.20;0.60;;;;;;;6.96;75.50;99305.72;5094764;28;20567;-70
2021/04/05 06:26:31;;;;;;;1.70;1.57;;;;;;;7.00;74.95;99293.22;5094141;28;20428;-67
2021/04/05 06:29:07;;;;;;;0.60;0.53;;;;;;;7.05;75.16;99278.84;5093887;28;20421;-68
2021/04/05 06:32:12;;;;;;;1.80;1.03;;;;;;;7.15;74.73;99288.53;5094489;28;20519;-69
2021/04/05 06:35:07;;;;;;;2.63;0.60;;;;;;;7.16;74.90;99265.88;5091446;28;20444;-69
2021/04/05 06:37:39;;;;;;;1.73;0.63;;;;;;;7.15;74.75;99261.59;5088305;28;20469;-67
2021/04/05 06:40:08;;;;;;;1.90;0.83;;;;;;;7.14;74.78;99262.72;5094007;28;20421;-69
2021/04/05 06:42:54;;;;;;;0.60;0.60;;;;;;;7.19;74.73;99249.91;5094737;28;20484;-73
2021/04/05 06:45:29;;;;;;;2.10;0.90;;;;;;;7.29;74.60;99257.69;5093516;28;20441;-70
2021/04/05 06:48:27;;;;;;;2.13;2.03;;;;;;;7.30;74.63;99236.94;5093660;28;20468;-67
2021/04/05 06:51:02;;;;;;;0.63;0.40;;;;;;;7.33;75.02;99247.88;5093526;28;20465;-69
2021/04/05 06:53:45;;;;;;;0.40;0.30;;;;;;;7.32;75.33;99234.75;5092647;28;20417;-69
2021/04/05 06:56:21;;;;;;;0.43;0.40;;;;;;;7.30;75.84;99221.59;5093342;28;20456;-68
2021/04/05 06:59:11;;;;;;;4.07;1.40;;;;;;;7.29;76.35;99229.97;5093453;28;20826;-68
2021/04/05 07:01:53;;;;;;;0.87;0.50;;;;;;;7.31;76.86;99220.50;5093408;28;20421;-69
2021/04/05 07:05:03;;;;;;;0.90;0.60;;;;;;;7.30;77.70;99218.91;5093255;28;20471;-67
2021/04/05 07:07:39;;;;;;;1.53;1.07;;;;;;;7.24;78.53;99216.66;5010252;28;20514;-70
2021/04/05 07:10:11;;;;;;;0.50;0.47;;;;;;;7.21;79.54;99209.19;5011028;28;20471;-68
2021/04/05 07:12:59;;;;;;;2.70;1.73;;;;;;;7.21;80.45;99207.28;5062032;28;20506;-70
2021/04/05 07:15:32;;;;;;;3.03;2.73;;;;;;;7.19;80.40;99204.13;5092960;28;20470;-69
2021/04/05 07:18:09;;;;;;;2.57;1.77;;;;;;;7.13;82.29;99200.00;5093170;28;20535;-70
2021/04/05 07:20:42;;;;;;;1.53;1.07;;;;;;;7.04;83.01;99204.56;5093165;28;20491;-71
2021/04/05 07:23:20;;;;;;;3.93;1.80;;;;;;;6.97;83.83;99193.44;5092486;28;20461;-68
2021/04/05 07:25:59;;;;;;;1.17;1.10;;;;;;;6.93;84.28;99189.78;5093156;28;20428;-72
2021/04/05 07:28:37;;;;;;;2.20;1.60;;;;;;;6.91;84.58;99202.78;5092995;28;20460;-70
2021/04/05 07:31:17;;;;;;;0.50;0.40;;;;;;;6.89;85.18;99191.50;5093183;28;20417;-70
2021/04/05 07:33:45;;;;;;;2.97;1.70;;;;;;;6.82;86.31;99190.06;5092428;28;20413;-71
2021/04/05 07:36:18;;;;;;;1.43;1.17;;;;;;;6.76;86.11;99183.22;5092953;28;20501;-70
2021/04/05 07:38:54;;;;;;;1.80;1.70;;;;;;;6.72;86.88;99184.94;5092826;28;20420;-71
2021/04/05 07:41:30;;;;;;;0.60;0.60;;;;;;;6.70;87.25;99179.09;5093224;28;20470;-68
2021/04/05 07:44:16;;;;;;;6.80;1.53;;;;;;;6.66;88.11;99186.19;5092172;28;20486;-69
2021/04/05 07:46:48;;;;;;;2.30;1.03;;;;;;;6.66;89.16;99185.41;5092580;28;21012;-68
2021/04/05 07:49:20;;;;;;;1.73;1.63;;;;;;;6.62;90.93;99195.97;5092919;28;20417;-68
2021/04/05 07:51:53;;;;;;;2.47;1.70;;;;;;;6.55;91.11;99176.78;5092614;28;20899;-70
2021/04/05 07:54:22;;;;;;;3.70;1.53;;;;;;;6.50;92.03;99176.91;5098024;28;20440;-70
2021/04/05 07:56:58;;;;;;;2.60;2.40;;;;;;;6.48;92.42;99190.69;5094410;28;20479;-70
2021/04/05 07:59:42;;;;;;;1.97;1.77;;;;;;;6.40;93.58;99185.25;5084318;28;20630;-71
2021/04/05 08:02:21;;;;;;;0.70;0.70;;;;;;;6.38;94.22;99190.16;5077131;28;20977;-70
2021/04/05 08:05:00;;;;;;;0.80;0.50;;;;;;;6.31;95.46;99183.31;5077222;28;20442;-71
2021/04/05 08:07:32;;;;;;;1.40;1.30;;;;;;;6.27;96.65;99185.00;5099011;22;20497;-67
2021/04/05 08:10:08;;;;;;;2.20;1.07;;;;;;;6.26;96.77;99194.19;5055100;28;20418;-66
2021/04/05 08:12:45;;;;;;;1.13;0.93;;;;;;;6.24;97.42;99196.41;5055883;28;20430;-68
2021/04/05 08:15:24;;;;;;;2.73;1.60;;;;;;;6.21;97.66;99197.00;5055528;28;20804;-67
2021/04/05 08:18:14;;;;;;;1.50;1.43;;;;;;;6.20;99.20;99198.13;5055956;28;20507;-69
2021/04/05 08:20:47;;;;;;;1.60;0.70;;;;;;;6.23;100.00;99185.94;5055901;28;20431;-71
2021/04/05 08:23:21;;;;;;;4.73;3.07;;;;;;;6.23;100.00;99192.09;5055231;28;20472;-69
2021/04/05 08:25:57;;;;;;;1.43;0.90;;;;;;;6.19;100.00;99187.66;5055723;28;20425;-68
2021/04/05 08:28:35;;;;;;;0.87;0.87;;;;;;;6.13;100.00;99192.34;5052602;28;21028;-69
2021/04/05 08:31:12;;;;;;;1.53;1.20;;;;;;;6.12;100.00;99188.09;5054615;28;20812;-68
2021/04/05 08:33:49;;;;;;;1.63;1.20;;;;;;;6.11;100.00;99183.81;5055824;28;20418;-68
2021/04/05 08:36:26;;;;;;;1.50;1.33;;;;;;;6.08;100.00;99192.47;5055097;28;20426;-67
2021/04/05 08:39:01;;;;;;;4.47;1.53;;;;;;;6.05;100.00;99176.97;5055656;28;20481;-69
2021/04/05 08:41:32;;;;;;;0.97;0.97;;;;;;;6.01;100.00;99181.34;5055929;28;20422;-69
2021/04/05 08:44:08;;;;;;;2.77;0.90;;;;;;;6.03;100.00;99173.78;5054564;28;21014;-67
2021/04/05 08:46:36;;;;;;;1.73;1.60;;;;;;;6.06;100.00;99173.16;5055656;28;20426;-65
2021/04/05 08:49:06;;;;;;;1.83;1.07;;;;;;;6.11;100.00;99159.63;5055347;28;20462;-70
2021/04/05 08:51:35;;;;;;;1.23;1.13;;;;;;;6.13;100.00;99164.69;5055463;28;20492;-67
2021/04/05 08:54:03;;;;;;;3.93;1.33;;;;;;;6.15;100.00;99165.94;5055425;28;20981;-66
2021/04/05 08:56:32;;;;;;;0.80;0.73;;;;;;;6.19;100.00;99182.28;5055226;28;20472;-66
2021/04/05 08:59:05;;;;;;;2.60;2.10;;;;;;;6.16;100.00;99174.84;5055322;28;20496;-67
2021/04/05 09:01:42;;;;;;;1.73;1.00;;;;;;;6.17;100.00;99184.47;5055067;28;20806;-67
2021/04/05 09:04:09;;;;;;;1.47;1.37;;;;;;;6.15;100.00;99189.34;5054306;28;20469;-67
2021/04/05 09:06:39;;;;;;;1.57;0.70;;;;;;;6.15;100.00;99195.53;5055000;28;20438;-67
2021/04/05 09:09:10;;;;;;;0.70;0.70;;;;;;;6.04;100.00;99213.00;5054615;28;20512;-67
2021/04/05 09:11:42;;;;;;;0.40;0.40;;;;;;;5.90;100.00;99250.66;5054897;28;20904;-66
2021/04/05 09:14:14;;;;;;;3.27;0.80;;;;;;;5.54;100.00;99253.31;5054086;28;20439;-68
2021/04/05 09:16:57;;;;;;;0.40;0.30;;;;;;;5.24;100.00;99249.34;5054220;28;20457;-67
2021/04/05 09:20:16;;;;;;;0.40;0.30;;;;;;;4.87;100.00;99252.97;5053068;28;20427;-68
2021/04/05 09:23:03;;;;;;;0.40;0.30;;;;;;;4.83;100.00;99258.16;5052666;28;20943;-67
2021/04/05 09:25:57;;;;;;;0.40;0.30;;;;;;;4.50;100.00;99262.72;5053621;28;20536;-69
2021/04/05 09:28:55;;;;;;;0.40;0.30;;;;;;;4.47;100.00;99263.31;5052947;28;20545;-67
2021/04/05 09:31:46;;;;;;;0.40;0.30;;;;;;;4.54;100.00;99269.09;5052288;28;20794;-68
2021/04/05 09:34:51;;;;;;;0.40;0.30;;;;;;;4.62;100.00;99273.00;5051618;28;20430;-68
2021/04/05 09:37:29;;;;;;;0.40;0.30;;;;;;;4.55;100.00;99279.53;5045379;28;20466;-67
2021/04/05 09:40:14;;;;;;;0.40;0.30;;;;;;;4.40;100.00;99282.47;5048767;28;20422;-68
2021/04/05 09:43:22;;;;;;;0.40;0.30;;;;;;;4.44;100.00;99274.63;5052053;28;20514;-68
2021/04/05 09:45:58;;;;;;;0.40;0.40;;;;;;;4.36;100.00;99294.06;5042299;28;20442;-68
2021/04/05 09:48:43;;;;;;;0.40;0.30;;;;;;;4.36;100.00;99299.41;5052910;28;20454;-67
2021/04/05 09:51:36;;;;;;;0.40;0.30;;;;;;;4.36;100.00;99294.06;5054191;28;20849;-67
2021/04/05 09:54:08;;;;;;;0.40;0.30;;;;;;;4.39;100.00;99293.47;5054223;28;20446;-68
2021/04/05 09:56:42;;;;;;;0.40;0.30;;;;;;;4.42;100.00;99298.25;5053514;28;20419;-68
2021/04/05 09:59:11;;;;;;;0.40;0.30;;;;;;;4.36;100.00;99289.50;5054143;28;20458;-66
2021/04/05 10:01:39;;;;;;;0.40;0.30;;;;;;;4.35;100.00;99277.19;5054086;28;20449;-68
2021/04/05 10:04:08;;;;;;;0.50;0.40;;;;;;;4.37;100.00;99274.19;5053091;28;21003;-68
2021/04/05 10:06:36;;;;;;;0.40;0.30;;;;;;;4.45;100.00;99254.78;5053995;28;20438;-67
2021/04/05 10:09:06;;;;;;;0.40;0.30;;;;;;;4.52;100.00;99250.63;5053741;28;20531;-67
2021/04/05 10:11:35;;;;;;;0.40;0.30;;;;;;;4.62;100.00;99251.56;5053013;28;20962;-67
2021/04/05 10:14:04;;;;;;;0.40;0.30;;;;;;;4.71;100.00;99257.81;5053293;28;20442;-68
2021/04/05 10:16:32;;;;;;;0.40;0.30;;;;;;;4.85;100.00;99279.31;5052831;28;20443;-67
2021/04/05 10:19:05;;;;;;;0.40;0.30;;;;;;;4.88;100.00;99281.41;5053166;28;20454;-68
2021/04/05 10:21:35;;;;;;;0.40;0.30;;;;;;;4.98;100.00;99300.00;5052866;28;20426;-66
2021/04/05 10:24:02;;;;;;;0.40;0.30;;;;;;;5.13;100.00;99298.94;5049804;28;20536;-69
2021/04/05 10:26:31;;;;;;;0.40;0.30;;;;;;;5.20;99.67;99291.28;5052909;28;20801;-69
2021/04/05 10:28:58;;;;;;;0.40;0.40;;;;;;;5.33;99.81;99290.50;5050686;28;20463;-69
2021/04/05 10:31:25;;;;;;;0.40;0.30;;;;;;;5.34;97.53;99288.59;5052905;28;20448;-69
2021/04/05 10:34:00;;;;;;;0.40;0.30;;;;;;;5.26;97.47;99290.88;5053101;28;20427;-69
2021/04/05 10:36:27;;;;;;;0.40;0.30;;;;;;;5.34;97.35;99285.94;5053022;28;20430;-68
2021/04/05 10:38:54;;;;;;;0.57;0.43;;;;;;;5.51;97.65;99276.19;5047466;28;20601;-68
2021/04/05 10:41:23;;;;;;;0.40;0.30;;;;;;;5.64;97.15;99279.16;5052194;28;20858;-67
2021/04/05 10:43:52;;;;;;;0.40;0.30;;;;;;;5.73;96.30;99277.34;5052589;28;20818;-66
2021/04/05 10:46:22;;;;;;;0.40;0.30;;;;;;;5.71;94.10;99283.03;5050641;28;20437;-66
2021/04/05 10:48:51;;;;;;;0.40;0.30;;;;;;;5.74;94.25;99290.47;5052233;28;21008;-69
2021/04/05 10:51:21;;;;;;;0.40;0.30;;;;;;;5.78;94.13;99286.09;5050449;28;20492;-67
2021/04/05 10:53:55;;;;;;;0.40;0.30;;;;;;;5.76;92.61;99293.66;5050968;28;20419;-68
2021/04/05 10:56:24;;;;;;;1.57;0.93;;;;;;;5.65;91.95;99292.28;5050826;28;20433;-67
2021/04/05 10:58:58;;;;;;;0.40;0.30;;;;;;;5.63;91.92;99302.53;5046477;28;20455;-67
2021/04/05 11:01:24;;;;;;;0.40;0.30;;;;;;;5.55;91.52;99292.50;5052412;28;20955;-67
2021/04/05 11:03:52;;;;;;;0.40;0.30;;;;;;;5.65;92.58;99286.09;5052399;28;20497;-69
2021/04/05 11:06:23;;;;;;;0.40;0.30;;;;;;;5.67;90.95;99295.47;5049965;28;20431;-67
2021/04/05 11:08:54;;;;;;;0.40;0.30;;;;;;;5.60;87.90;99297.75;5051225;28;20485;-67
2021/04/05 11:11:23;;;;;;;0.40;0.30;;;;;;;5.67;87.60;99303.53;5050311;28;20530;-67
2021/04/05 11:13:52;;;;;;;0.40;0.37;;;;;;;5.62;84.76;99287.50;5052577;28;20500;-68
2021/04/05 11:16:20;;;;;;;0.40;0.30;;;;;;;5.66;85.47;99299.22;5052900;28;20442;-67
2021/04/05 11:18:48;;;;;;;0.40;0.30;;;;;;;5.81;85.35;99306.19;5052908;28;20458;-67
2021/04/05 11:21:17;;;;;;;0.40;0.30;;;;;;;5.76;82.37;99315.16;5053138;28;20454;-67
2021/04/05 11:23:45;;;;;;;0.40;0.30;;;;;;;5.83;81.83;99304.78;5052071;28;20904;-67
2021/04/05 11:26:12;;;;;;;0.40;0.30;;;;;;;5.98;81.66;99310.97;5052673;28;21018;-67
2021/04/05 11:28:41;;;;;;;0.40;0.30;;;;;;;6.18;80.59;99317.78;5053140;28;20466;-66
2021/04/05 11:31:11;;;;;;;0.40;0.30;;;;;;;6.20;77.62;99321.00;5052471;28;20446;-67
2021/04/05 11:33:47;;;;;;;0.40;0.30;;;;;;;6.14;77.15;99314.91;5052766;28;20458;-67
2021/04/05 11:36:14;;;;;;;0.40;0.30;;;;;;;6.27;79.65;99324.84;5052583;28;20461;-66
2021/04/05 11:38:45;;;;;;;0.40;0.30;;;;;;;6.29;76.06;99330.72;5052792;28;20461;-66
2021/04/05 11:41:13;;;;;;;0.40;0.30;;;;;;;6.15;75.76;99321.88;5052152;28;20458;-67
2021/04/05 11:43:43;;;;;;;0.40;0.30;;;;;;;6.22;76.12;99322.25;5054595;28;20482;-65
2021/04/05 11:46:12;;;;;;;0.40;0.30;;;;;;;6.23;75.25;99337.28;5056713;28;20461;-64
2021/04/05 11:48:38;;;;;;;3.50;0.97;;;;;;;6.07;75.79;99352.19;5056032;28;20450;-64
2021/04/05 11:51:05;;;;;;;0.40;0.30;;;;;;;5.30;84.23;99369.75;5056005;28;20451;-64
2021/04/05 11:53:39;;;;;;;0.40;0.30;;;;;;;4.27;90.96;99377.00;5056410;28;20475;-63
2021/04/05 11:56:18;;;;;;;0.60;0.57;;;;;;;3.90;93.42;99372.41;5056331;28;20468;-63
2021/04/05 11:58:49;;;;;;;0.40;0.37;;;;;;;3.87;96.02;99381.00;5055446;28;20986;-64
2021/04/05 12:01:19;;;;;;;0.40;0.40;;;;;;;4.05;96.95;99386.38;5056024;28;20460;-63